Time;durP1;ratioP1;P1;durP2;ratioP2;P2;SDS_P1;SDS_P2;PMS_P1;PMS_P2;Temp;Humidity;BMP_temperature;BMP_pressure;BME280_temperature;BME280_humidity;BME280_pressure;Samples;Min_cycle;Max_cycle;Signal;HPM_P1;HPM_P2
2023/07/21 00:00:58;;;;;;;7.93;3.03;;;31.60;97.30;;;;;;5034629;22;20065;-53
2023/07/21 00:03:24;;;;;;;6.72;3.28;;;31.70;99.70;;;;;;5016288;28;20021;-52
2023/07/21 00:05:50;;;;;;;10.27;2.75;;;31.70;98.20;;;;;;5028501;28;20335;-53
2023/07/21 00:08:16;;;;;;;7.32;3.20;;;31.70;98.70;;;;;;5022671;28;20036;-51
2023/07/21 00:10:44;;;;;;;5.85;3.63;;;31.70;99.20;;;;;;5027706;28;20025;-51
2023/07/21 00:13:09;;;;;;;7.32;4.63;;;31.70;99.00;;;;;;5024298;28;20351;-51
2023/07/21 00:15:35;;;;;;;7.50;3.42;;;31.70;99.90;;;;;;5029552;28;20025;-51
2023/07/21 00:18:03;;;;;;;14.00;4.53;;;31.70;99.90;;;;;;5023301;28;20605;-51
2023/07/21 00:20:29;;;;;;;;;;;31.70;99.90;;;;;;5012313;28;20022;-51
2023/07/21 00:22:55;;;;;;;15.38;4.05;;;31.70;99.90;;;;;;5022856;28;19905;-52
2023/07/21 00:25:21;;;;;;;9.93;3.75;;;31.70;99.90;;;;;;5024808;28;20028;-52
2023/07/21 00:27:47;;;;;;;9.07;4.03;;;31.70;99.90;;;;;;5022220;28;20026;-53
2023/07/21 00:30:14;;;;;;;5.63;3.47;;;31.70;99.90;;;;;;5022352;28;20112;-51
2023/07/21 00:32:41;;;;;;;8.40;3.37;;;31.70;99.90;;;;;;5020293;28;20022;-52
2023/07/21 00:35:08;;;;;;;7.30;3.65;;;31.70;99.90;;;;;;5018773;28;20057;-51
2023/07/21 00:37:37;;;;;;;15.88;3.50;;;31.70;99.90;;;;;;5020131;28;20038;-51
2023/07/21 00:40:09;;;;;;;8.70;3.67;;;31.70;99.90;;;;;;5013792;28;20035;-51
2023/07/21 00:42:35;;;;;;;6.35;3.42;;;31.70;99.90;;;;;;5027583;28;20450;-52
2023/07/21 00:45:01;;;;;;;16.20;5.95;;;31.70;99.90;;;;;;5027636;28;20056;-52
2023/07/21 00:47:29;;;;;;;8.73;4.32;;;31.70;99.90;;;;;;5017297;28;20047;-52
2023/07/21 00:49:59;;;;;;;7.57;4.32;;;31.70;99.90;;;;;;5019243;28;20025;-52
2023/07/21 00:52:26;;;;;;;12.95;4.22;;;31.70;99.90;;;;;;5014793;28;20018;-52
2023/07/21 00:54:52;;;;;;;9.00;4.35;;;31.80;99.90;;;;;;5017029;28;20018;-53
2023/07/21 00:57:20;;;;;;;7.35;3.55;;;31.70;99.90;;;;;;5015506;28;20128;-51
2023/07/21 00:59:46;;;;;;;7.93;3.80;;;31.70;99.90;;;;;;5015101;28;20026;-52
2023/07/21 01:02:12;;;;;;;11.45;3.75;;;31.70;99.90;;;;;;5023464;23;20054;-48
2023/07/21 01:04:39;;;;;;;5.85;3.70;;;31.70;99.90;;;;;;4990979;28;20030;-47
2023/07/21 01:07:09;;;;;;;6.85;3.38;;;31.70;99.90;;;;;;4975382;28;20030;-47
2023/07/21 01:09:37;;;;;;;9.77;3.55;;;31.70;99.90;;;;;;4978275;28;20026;-48
2023/07/21 01:12:05;;;;;;;6.47;4.03;;;31.70;99.90;;;;;;4975692;28;20434;-47
2023/07/21 01:14:30;;;;;;;6.60;3.58;;;31.70;99.90;;;;;;4978454;28;20023;-48
2023/07/21 01:16:58;;;;;;;7.65;3.88;;;31.70;99.90;;;;;;4978870;28;20089;-48
2023/07/21 01:19:26;;;;;;;9.30;3.53;;;31.70;99.90;;;;;;4980214;28;20114;-47
2023/07/21 01:21:59;;;;;;;10.57;3.70;;;31.70;99.90;;;;;;4981044;28;20105;-47
2023/07/21 01:24:46;;;;;;;8.82;4.15;;;31.60;99.90;;;;;;4981837;28;20066;-48
2023/07/21 01:27:15;;;;;;;10.35;3.72;;;31.60;99.90;;;;;;4981429;28;20186;-48
2023/07/21 01:29:43;;;;;;;8.35;4.18;;;31.60;99.90;;;;;;4984491;28;20108;-47
2023/07/21 01:32:12;;;;;;;10.50;4.45;;;31.60;99.90;;;;;;4982844;28;20113;-48
2023/07/21 01:34:38;;;;;;;6.28;4.00;;;31.60;99.90;;;;;;4987703;28;20050;-49
2023/07/21 01:37:09;;;;;;;6.43;3.97;;;31.60;99.90;;;;;;4984296;28;20476;-49
2023/07/21 01:39:36;;;;;;;7.50;4.18;;;31.60;99.90;;;;;;4993182;28;20573;-48
2023/07/21 01:42:03;;;;;;;9.20;3.72;;;31.50;99.90;;;;;;4982059;28;20027;-48
2023/07/21 01:44:30;;;;;;;8.70;4.07;;;31.60;99.90;;;;;;4974652;28;20034;-48
2023/07/21 01:46:55;;;;;;;8.80;4.38;;;31.60;99.90;;;;;;4989617;28;20022;-48
2023/07/21 01:49:21;;;;;;;12.52;4.38;;;31.50;99.90;;;;;;4987351;28;20033;-47
2023/07/21 01:51:50;;;;;;;10.55;3.80;;;31.50;99.90;;;;;;4989738;28;20023;-47
2023/07/21 01:54:51;;;;;;;21.50;5.18;;;31.40;99.90;;;;;;4991136;28;20467;-47
2023/07/21 01:57:24;;;;;;;11.90;4.40;;;31.30;99.90;;;;;;4963271;28;20042;-47
2023/07/21 01:59:51;;;;;;;14.55;4.53;;;31.20;99.90;;;;;;4991329;28;20018;-47
2023/07/21 02:02:19;;;;;;;7.03;3.50;;;31.10;99.90;;;;;;5038969;23;20637;-50
2023/07/21 02:04:51;;;;;;;10.68;4.13;;;30.90;99.90;;;;;;5032095;28;20030;-51
2023/07/21 02:07:22;;;;;;;11.43;4.15;;;30.80;99.90;;;;;;5031320;28;20029;-50
2023/07/21 02:09:52;;;;;;;14.90;4.03;;;30.70;99.90;;;;;;5028500;28;20014;-52
2023/07/21 02:12:19;;;;;;;11.57;4.35;;;30.60;99.90;;;;;;5031218;28;20041;-50
2023/07/21 02:14:45;;;;;;;8.07;4.00;;;30.50;99.90;;;;;;5026975;28;20014;-51
2023/07/21 02:17:11;;;;;;;12.52;4.03;;;30.40;99.90;;;;;;5028682;28;20072;-49
2023/07/21 02:19:37;;;;;;;17.25;5.45;;;30.40;99.90;;;;;;5026824;28;20022;-50
2023/07/21 02:22:03;;;;;;;12.38;4.45;;;30.40;99.90;;;;;;5030562;28;20050;-50
2023/07/21 02:24:28;;;;;;;9.32;5.88;;;30.40;99.90;;;;;;5024855;28;20048;-51
2023/07/21 02:26:54;;;;;;;13.07;4.20;;;30.40;99.90;;;;;;5023035;28;20045;-50
2023/07/21 02:29:20;;;;;;;10.25;5.00;;;30.40;99.90;;;;;;5029520;28;20026;-49
2023/07/21 02:31:48;;;;;;;15.35;5.80;;;30.40;99.90;;;;;;5023643;28;20041;-49
2023/07/21 02:34:14;;;;;;;12.63;4.75;;;30.50;99.90;;;;;;5037858;28;20022;-50
2023/07/21 02:36:40;;;;;;;14.45;4.82;;;30.50;99.90;;;;;;5024481;28;20359;-50
2023/07/21 02:39:06;;;;;;;11.57;4.40;;;30.50;99.90;;;;;;5030779;28;20135;-49
2023/07/21 02:41:31;;;;;;;11.30;4.25;;;30.50;99.90;;;;;;5030468;28;20029;-50
2023/07/21 02:43:57;;;;;;;8.32;4.22;;;30.50;99.90;;;;;;5043366;28;20474;-50
2023/07/21 02:46:23;;;;;;;9.88;4.80;;;30.60;99.90;;;;;;5019728;28;20021;-50
2023/07/21 02:48:50;;;;;;;11.80;4.00;;;30.60;99.90;;;;;;5022747;28;20029;-50
2023/07/21 02:51:16;;;;;;;9.95;4.47;;;30.60;99.90;;;;;;5019456;28;20021;-50
2023/07/21 02:53:42;;;;;;;11.43;4.83;;;30.60;99.90;;;;;;5013651;28;20022;-51
2023/07/21 02:56:08;;;;;;;12.57;4.15;;;30.60;99.90;;;;;;5025995;28;20437;-51
2023/07/21 02:58:34;;;;;;;9.98;3.92;;;30.60;99.90;;;;;;5012490;28;20042;-50
2023/07/21 03:01:03;;;;;;;11.73;4.80;;;30.60;99.90;;;;;;5012359;28;20054;-51
2023/07/21 03:03:32;;;;;;;11.63;3.95;;;30.60;99.90;;;;;;5015829;28;20025;-50
2023/07/21 03:06:00;;;;;;;8.60;4.32;;;30.50;99.90;;;;;;5030542;28;20120;-51
2023/07/21 03:08:32;;;;;;;11.80;4.47;;;30.60;99.90;;;;;;5028342;28;20025;-50
2023/07/21 03:10:58;;;;;;;14.50;4.80;;;30.50;99.90;;;;;;5027988;28;20017;-52
2023/07/21 03:13:25;;;;;;;20.27;4.32;;;30.50;99.90;;;;;;5027812;28;20021;-52
2023/07/21 03:15:54;;;;;;;10.75;3.88;;;30.50;99.90;;;;;;5027492;28;20041;-52
2023/07/21 03:18:19;;;;;;;14.20;4.10;;;30.50;99.90;;;;;;5022806;28;20038;-51
2023/07/21 03:20:45;;;;;;;7.80;3.60;;;30.50;99.90;;;;;;5029766;28;20018;-50
2023/07/21 03:23:12;;;;;;;9.77;4.10;;;30.50;99.90;;;;;;5020476;28;20026;-49
2023/07/21 03:25:46;;;;;;;8.10;3.92;;;30.50;99.90;;;;;;5024734;28;20489;-49
2023/07/21 03:28:12;;;;;;;10.30;4.18;;;30.40;99.90;;;;;;5023580;28;20488;-49
2023/07/21 03:30:37;;;;;;;9.85;4.22;;;30.40;99.90;;;;;;5023854;28;20017;-49
2023/07/21 03:33:03;;;;;;;7.90;3.78;;;30.40;99.90;;;;;;5017307;28;20125;-52
2023/07/21 03:35:29;;;;;;;10.10;3.92;;;30.40;99.90;;;;;;5018825;28;20022;-53
2023/07/21 03:37:57;;;;;;;11.70;4.13;;;30.40;99.90;;;;;;5028642;28;20401;-49
2023/07/21 03:40:23;;;;;;;13.60;4.32;;;30.40;99.90;;;;;;5030130;28;20025;-50
2023/07/21 03:42:49;;;;;;;8.35;4.22;;;30.40;99.90;;;;;;5026911;28;20105;-50
2023/07/21 03:45:15;;;;;;;16.00;4.15;;;30.40;99.90;;;;;;5023874;28;20101;-50
2023/07/21 03:47:41;;;;;;;15.67;3.63;;;30.40;99.90;;;;;;5016898;28;20022;-49
2023/07/21 03:50:10;;;;;;;11.73;4.28;;;30.30;99.90;;;;;;5029057;28;20282;-49
2023/07/21 03:52:36;;;;;;;12.57;4.07;;;30.30;99.90;;;;;;5016601;28;20025;-49
2023/07/21 03:55:03;;;;;;;19.05;4.75;;;30.30;99.90;;;;;;5021145;28;20028;-50
2023/07/21 03:57:29;;;;;;;8.45;4.35;;;30.30;99.90;;;;;;5023476;28;20022;-49
2023/07/21 03:59:54;;;;;;;8.40;3.33;;;30.40;99.90;;;;;;5033244;28;20032;-50
2023/07/21 04:02:20;;;;;;;8.10;3.75;;;30.30;99.90;;;;;;5034113;28;20041;-49
2023/07/21 04:04:46;;;;;;;8.00;4.15;;;30.30;99.90;;;;;;5032670;28;20040;-49
2023/07/21 04:07:12;;;;;;;15.48;4.32;;;30.30;99.90;;;;;;5032860;28;20377;-49
2023/07/21 04:09:38;;;;;;;7.90;3.90;;;30.20;99.90;;;;;;5028727;28;20022;-49
2023/07/21 04:12:07;;;;;;;13.75;4.18;;;30.20;99.90;;;;;;5033367;28;20029;-52
2023/07/21 04:14:34;;;;;;;9.27;4.50;;;30.20;99.90;;;;;;5027653;28;20049;-51
2023/07/21 04:16:59;;;;;;;14.65;4.45;;;30.20;99.90;;;;;;5029245;28;20032;-52
2023/07/21 04:19:25;;;;;;;22.90;5.63;;;30.20;99.90;;;;;;5027812;28;20034;-52
2023/07/21 04:21:54;;;;;;;18.48;4.80;;;30.20;99.90;;;;;;5028822;28;20017;-51
2023/07/21 04:24:20;;;;;;;13.20;4.55;;;30.10;99.90;;;;;;5025228;28;20084;-52
2023/07/21 04:26:46;;;;;;;15.43;4.35;;;30.10;99.90;;;;;;5022675;28;20394;-52
2023/07/21 04:29:12;;;;;;;15.40;4.22;;;30.10;99.90;;;;;;5031110;28;20018;-52
2023/07/21 04:31:38;;;;;;;10.00;4.32;;;30.10;99.90;;;;;;5020088;28;20516;-52
2023/07/21 04:34:03;;;;;;;15.05;4.00;;;30.10;99.90;;;;;;5023482;28;20021;-51
2023/07/21 04:36:29;;;;;;;10.48;4.15;;;30.10;99.90;;;;;;5025021;28;20171;-52
2023/07/21 04:38:56;;;;;;;10.77;4.32;;;30.10;99.90;;;;;;5033170;28;20124;-52
2023/07/21 04:41:22;;;;;;;11.05;4.38;;;30.10;99.90;;;;;;5020527;28;20025;-50
2023/07/21 04:43:48;;;;;;;12.35;3.83;;;30.00;99.90;;;;;;5030976;28;20036;-53
2023/07/21 04:46:14;;;;;;;12.88;4.10;;;30.00;99.90;;;;;;5022794;28;20014;-53
2023/07/21 04:48:39;;;;;;;13.75;4.57;;;30.00;99.90;;;;;;5023467;28;20029;-52
2023/07/21 04:51:05;;;;;;;10.93;3.90;;;30.00;99.90;;;;;;5023021;28;20042;-50
2023/07/21 04:53:31;;;;;;;7.88;3.83;;;30.00;99.90;;;;;;5014741;28;20083;-52
2023/07/21 04:55:58;;;;;;;12.00;4.20;;;29.90;99.90;;;;;;5026830;28;20025;-52
2023/07/21 04:58:24;;;;;;;11.23;3.93;;;29.90;99.90;;;;;;4998608;28;20026;-51
2023/07/21 05:00:51;;;;;;;13.37;3.93;;;29.90;99.90;;;;;;5013210;28;20056;-49
2023/07/21 05:03:17;;;;;;;13.18;3.75;;;29.90;99.90;;;;;;5031909;28;20025;-51
2023/07/21 05:05:45;;;;;;;15.13;3.85;;;29.90;99.90;;;;;;5033510;28;20045;-53
2023/07/21 05:08:10;;;;;;;8.02;3.63;;;29.90;99.90;;;;;;5031094;28;20014;-52
2023/07/21 05:10:36;;;;;;;16.00;4.38;;;29.80;99.90;;;;;;5031558;28;20532;-50
2023/07/21 05:13:05;;;;;;;11.98;3.50;;;29.80;99.90;;;;;;5030178;28;20471;-52
2023/07/21 05:15:35;;;;;;;11.98;5.22;;;29.80;99.90;;;;;;5012973;28;20029;-50
2023/07/21 05:18:02;;;;;;;15.98;4.10;;;29.80;99.90;;;;;;5026963;28;20026;-51
2023/07/21 05:20:28;;;;;;;13.20;3.70;;;29.80;99.90;;;;;;5019602;28;20108;-52
2023/07/21 05:22:53;;;;;;;8.20;3.65;;;29.80;99.90;;;;;;5026065;28;20439;-51
2023/07/21 05:25:19;;;;;;;11.43;3.90;;;29.70;99.90;;;;;;5025768;28;20021;-52
2023/07/21 05:27:49;;;;;;;22.90;4.88;;;29.80;99.90;;;;;;5030268;28;20022;-52
2023/07/21 05:30:15;;;;;;;33.40;4.72;;;29.70;99.90;;;;;;5023497;28;20073;-52
2023/07/21 05:32:41;;;;;;;11.75;4.32;;;29.70;99.90;;;;;;5023652;28;20048;-49
2023/07/21 05:35:10;;;;;;;14.65;4.70;;;29.70;99.90;;;;;;5027897;28;20545;-49
2023/07/21 05:37:35;;;;;;;20.20;5.45;;;29.60;99.90;;;;;;5025427;28;20386;-51
2023/07/21 05:40:02;;;;;;;16.42;4.97;;;29.60;99.90;;;;;;5032361;28;20018;-50
2023/07/21 05:42:27;;;;;;;10.00;4.00;;;29.60;99.90;;;;;;5031183;28;20030;-51
2023/07/21 05:44:53;;;;;;;12.90;4.15;;;29.60;99.90;;;;;;5028031;28;20022;-49
2023/07/21 05:47:19;;;;;;;11.80;4.70;;;29.60;99.90;;;;;;5016384;28;20493;-50
2023/07/21 05:49:45;;;;;;;16.70;4.85;;;29.60;99.90;;;;;;5020583;28;20500;-51
2023/07/21 05:52:11;;;;;;;13.13;4.15;;;29.60;99.90;;;;;;5025528;28;20037;-50
2023/07/21 05:54:37;;;;;;;14.00;3.75;;;29.50;99.90;;;;;;5018829;28;20033;-51
2023/07/21 05:57:04;;;;;;;15.68;5.95;;;29.60;99.90;;;;;;5020952;28;20009;-51
2023/07/21 05:59:32;;;;;;;16.33;4.40;;;29.50;99.90;;;;;;5020899;28;20034;-50
2023/07/21 06:02:01;;;;;;;13.48;5.07;;;29.60;99.90;;;;;;5013742;28;20045;-50
2023/07/21 06:04:27;;;;;;;10.48;4.00;;;29.60;99.90;;;;;;5013181;28;20556;-52
2023/07/21 06:06:55;;;;;;;10.73;4.40;;;29.50;99.90;;;;;;5025685;28;20077;-52
2023/07/21 06:09:20;;;;;;;12.73;4.25;;;29.60;99.90;;;;;;5025107;28;20079;-52
2023/07/21 06:11:47;;;;;;;11.13;4.50;;;29.50;99.90;;;;;;5045318;28;20381;-53
2023/07/21 06:14:13;;;;;;;11.38;4.90;;;29.50;99.90;;;;;;5030756;28;20464;-52
2023/07/21 06:16:39;;;;;;;12.80;4.47;;;29.60;99.90;;;;;;5028426;28;20030;-52
2023/07/21 06:19:05;;;;;;;10.75;4.22;;;29.60;99.90;;;;;;5029720;28;20367;-50
2023/07/21 06:21:31;;;;;;;12.95;4.40;;;29.60;99.90;;;;;;5026731;28;20446;-51
2023/07/21 06:23:57;;;;;;;11.85;4.03;;;29.70;99.90;;;;;;5028552;28;20025;-53
2023/07/21 06:26:22;;;;;;;11.85;3.88;;;29.70;99.90;;;;;;5024298;28;20378;-52
2023/07/21 06:28:49;;;;;;;14.07;4.28;;;29.70;99.90;;;;;;5029458;28;20028;-52
2023/07/21 06:31:15;;;;;;;10.35;3.97;;;29.70;99.90;;;;;;5024619;28;20473;-51
2023/07/21 06:33:41;;;;;;;13.18;5.45;;;29.80;99.90;;;;;;5023184;28;20442;-52
2023/07/21 06:36:07;;;;;;;13.55;4.57;;;29.80;99.90;;;;;;5024913;28;20089;-53
2023/07/21 06:38:33;;;;;;;13.73;4.25;;;29.80;99.90;;;;;;5031571;28;20048;-51
2023/07/21 06:40:59;;;;;;;13.73;3.78;;;29.80;99.90;;;;;;5030831;28;20120;-51
2023/07/21 06:43:25;;;;;;;8.60;4.40;;;29.90;99.90;;;;;;5030127;28;20429;-51
2023/07/21 06:45:51;;;;;;;19.70;5.05;;;29.90;99.90;;;;;;5019546;28;20065;-51
2023/07/21 06:48:17;;;;;;;16.63;3.85;;;29.90;99.90;;;;;;5017164;28;20104;-51
2023/07/21 06:50:43;;;;;;;10.68;4.72;;;29.90;99.90;;;;;;5023578;28;20025;-51
2023/07/21 06:53:09;;;;;;;8.60;4.43;;;30.00;99.90;;;;;;5017621;28;20021;-51
2023/07/21 06:55:35;;;;;;;11.93;3.90;;;30.00;99.90;;;;;;5013351;28;20493;-51
2023/07/21 06:58:01;;;;;;;15.75;4.72;;;30.00;99.90;;;;;;5014017;28;20128;-50
2023/07/21 07:00:27;;;;;;;13.00;4.75;;;30.10;99.90;;;;;;5023078;28;20105;-51
2023/07/21 07:02:56;;;;;;;14.13;4.53;;;30.10;99.90;;;;;;5012544;28;20026;-51
2023/07/21 07:05:23;;;;;;;14.00;4.15;;;30.10;99.90;;;;;;5029704;28;20076;-51
2023/07/21 07:07:53;;;;;;;13.48;4.30;;;30.10;99.90;;;;;;5044147;28;20032;-51
2023/07/21 07:10:21;;;;;;;16.13;3.90;;;30.10;99.90;;;;;;5017902;28;20034;-51
2023/07/21 07:12:47;;;;;;;11.02;4.45;;;30.10;99.90;;;;;;5026030;28;20025;-52
2023/07/21 07:15:12;;;;;;;14.00;4.55;;;30.20;99.90;;;;;;5028878;28;20029;-52
2023/07/21 07:17:38;;;;;;;8.65;3.90;;;30.20;99.90;;;;;;5026957;28;20489;-52
2023/07/21 07:20:07;;;;;;;14.70;3.90;;;30.20;99.90;;;;;;5023155;28;20138;-51
2023/07/21 07:22:32;;;;;;;10.52;4.00;;;30.20;99.90;;;;;;5024552;28;20024;-51
2023/07/21 07:24:58;;;;;;;10.25;4.25;;;30.30;99.90;;;;;;5025409;28;20382;-50
2023/07/21 07:27:24;;;;;;;12.98;4.63;;;30.30;99.90;;;;;;5023766;28;20013;-51
2023/07/21 07:29:50;;;;;;;8.38;4.07;;;30.40;99.90;;;;;;5017613;28;20068;-51
2023/07/21 07:32:15;;;;;;;11.38;4.25;;;30.40;99.90;;;;;;5022809;28;20028;-51
2023/07/21 07:34:41;;;;;;;8.05;4.18;;;30.40;99.90;;;;;;5016661;28;20378;-52
2023/07/21 07:37:07;;;;;;;9.55;4.13;;;30.40;99.90;;;;;;5018680;28;20025;-51
2023/07/21 07:39:33;;;;;;;13.27;4.38;;;30.50;99.90;;;;;;5024841;28;20359;-51
2023/07/21 07:41:59;;;;;;;9.50;4.38;;;30.50;99.90;;;;;;5022446;28;20084;-52
2023/07/21 07:44:24;;;;;;;11.70;4.32;;;30.50;99.90;;;;;;5027605;28;20430;-50
2023/07/21 07:46:54;;;;;;;6.60;4.20;;;30.50;99.90;;;;;;5015813;28;20075;-52
2023/07/21 07:49:20;;;;;;;16.25;4.57;;;30.50;99.90;;;;;;5015498;28;20022;-53
2023/07/21 07:51:46;;;;;;;10.77;4.38;;;30.60;99.90;;;;;;5024078;28;20655;-52
2023/07/21 07:54:14;;;;;;;9.50;4.82;;;30.60;99.90;;;;;;5028376;28;20386;-53
2023/07/21 07:56:40;;;;;;;10.27;4.53;;;30.70;99.90;;;;;;5030073;28;20486;-52
2023/07/21 07:59:06;;;;;;;20.42;4.72;;;30.70;99.90;;;;;;5029551;28;20068;-53
2023/07/21 08:01:32;;;;;;;9.50;4.10;;;30.70;99.90;;;;;;5013322;28;20070;-54
2023/07/21 08:03:59;;;;;;;13.00;4.32;;;30.70;99.90;;;;;;5021280;28;20112;-54
2023/07/21 08:06:25;;;;;;;11.85;4.13;;;30.80;99.90;;;;;;5028109;28;20017;-54
2023/07/21 08:08:50;;;;;;;13.73;4.13;;;30.80;99.90;;;;;;5029425;28;20036;-54
2023/07/21 08:11:16;;;;;;;11.70;3.83;;;30.80;99.90;;;;;;5025758;28;20021;-53
2023/07/21 08:13:42;;;;;;;13.75;4.07;;;30.90;99.90;;;;;;5027400;28;20017;-54
2023/07/21 08:16:09;;;;;;;10.63;4.20;;;30.90;99.90;;;;;;5027874;28;20026;-53
2023/07/21 08:18:35;;;;;;;;;;;30.90;99.90;;;;;;5025486;28;20030;-54
2023/07/21 08:21:16;;;;;;;8.00;3.65;;;31.00;99.90;;;;;;5023308;28;19905;-54
2023/07/21 08:23:42;;;;;;;10.48;4.47;;;31.00;99.90;;;;;;5028529;28;20123;-54
2023/07/21 08:26:08;;;;;;;11.07;4.53;;;31.00;99.90;;;;;;5037336;28;20109;-53
2023/07/21 08:28:34;;;;;;;15.23;4.35;;;31.00;99.90;;;;;;5020314;28;20033;-52
2023/07/21 08:30:59;;;;;;;15.27;4.70;;;31.00;99.90;;;;;;5022311;28;20049;-54
2023/07/21 08:33:26;;;;;;;14.00;5.40;;;31.10;99.90;;;;;;5022241;28;20405;-50
2023/07/21 08:35:52;;;;;;;18.23;5.37;;;31.10;99.90;;;;;;5037156;28;20017;-55
2023/07/21 08:38:17;;;;;;;11.57;5.38;;;31.10;99.90;;;;;;5037827;28;20601;-53
2023/07/21 08:40:55;;;;;;;13.15;5.22;;;31.10;99.90;;;;;;5015317;28;20041;-53
2023/07/21 08:43:21;;;;;;;15.85;5.68;;;31.10;99.90;;;;;;5032502;28;20025;-51
2023/07/21 08:45:49;;;;;;;16.50;5.50;;;31.10;99.90;;;;;;5022139;28;20059;-52
2023/07/21 08:48:17;;;;;;;17.52;5.97;;;31.00;99.90;;;;;;5019739;28;20375;-52
2023/07/21 08:50:47;;;;;;;42.17;5.28;;;30.80;99.90;;;;;;5014965;28;20036;-51
2023/07/21 08:53:13;;;;;;;15.48;4.88;;;30.70;99.90;;;;;;5029214;28;20067;-51
2023/07/21 08:55:39;;;;;;;13.68;5.10;;;30.50;99.90;;;;;;5015192;28;20488;-51
2023/07/21 08:58:06;;;;;;;14.32;4.47;;;30.50;99.90;;;;;;5017725;28;20036;-52
2023/07/21 09:00:32;;;;;;;16.88;5.60;;;30.40;99.90;;;;;;5023947;28;20038;-52
2023/07/21 09:03:00;;;;;;;16.55;5.32;;;30.30;99.90;;;;;;5028211;28;20030;-52
2023/07/21 09:05:26;;;;;;;14.38;4.95;;;30.20;99.90;;;;;;5033435;28;20103;-53
2023/07/21 09:07:52;;;;;;;15.27;5.90;;;30.10;99.90;;;;;;5030308;28;20037;-52
2023/07/21 09:10:34;;;;;;;23.10;7.35;;;30.10;99.90;;;;;;5030852;28;20034;-51
2023/07/21 09:13:01;;;;;;;20.48;5.20;;;30.10;99.90;;;;;;5028476;28;20533;-51
2023/07/21 09:15:27;;;;;;;24.23;6.50;;;30.00;99.90;;;;;;5030116;28;20033;-52
2023/07/21 09:17:53;;;;;;;14.63;5.63;;;29.90;99.90;;;;;;5025700;28;20084;-52
2023/07/21 09:20:19;;;;;;;13.48;5.68;;;29.90;99.90;;;;;;5025142;28;20025;-51
2023/07/21 09:22:48;;;;;;;13.02;4.93;;;29.80;99.90;;;;;;5044989;28;20117;-52
2023/07/21 09:25:22;;;;;;;13.57;4.57;;;29.80;99.90;;;;;;5024606;28;20108;-52
2023/07/21 09:27:55;;;;;;;24.60;5.88;;;29.70;99.90;;;;;;5020998;28;20360;-51
2023/07/21 09:30:21;;;;;;;14.23;4.93;;;29.60;99.90;;;;;;5030113;28;20421;-52
2023/07/21 09:32:47;;;;;;;14.52;5.68;;;29.60;99.90;;;;;;5021972;28;20026;-51
2023/07/21 09:35:13;;;;;;;13.93;5.55;;;29.60;99.90;;;;;;5022213;28;20026;-51
2023/07/21 09:37:39;;;;;;;16.67;5.60;;;29.60;99.90;;;;;;5022023;28;20437;-51
2023/07/21 09:40:11;;;;;;;25.80;7.30;;;29.60;99.90;;;;;;5022715;28;20025;-51
2023/07/21 09:42:38;;;;;;;22.02;11.85;;;29.60;99.90;;;;;;5028946;28;20030;-52
2023/07/21 09:45:05;;;;;;;26.40;11.80;;;29.70;99.90;;;;;;5025716;28;20029;-51
2023/07/21 09:47:31;;;;;;;16.63;8.80;;;29.70;99.90;;;;;;5031865;28;20355;-52
2023/07/21 09:50:02;;;;;;;17.17;6.53;;;29.70;99.90;;;;;;5020205;28;20109;-53
2023/07/21 09:52:28;;;;;;;17.73;7.00;;;29.80;99.90;;;;;;5022364;28;20056;-51
2023/07/21 09:55:06;;;;;;;20.52;6.28;;;29.80;99.90;;;;;;5031719;28;20032;-52
2023/07/21 09:57:36;;;;;;;25.35;6.75;;;29.80;99.90;;;;;;5013432;28;20026;-52
2023/07/21 10:00:12;;;;;;;15.95;7.40;;;29.90;99.90;;;;;;5025803;28;20478;-52
2023/07/21 10:02:39;;;;;;;17.38;5.75;;;29.90;99.90;;;;;;5025840;28;20037;-51
2023/07/21 10:05:11;;;;;;;18.25;7.72;;;29.90;99.90;;;;;;5030387;28;20088;-51
2023/07/21 10:07:42;;;;;;;23.80;5.82;;;30.00;99.90;;;;;;5031692;28;20116;-51
2023/07/21 10:10:10;;;;;;;21.25;6.53;;;30.00;99.90;;;;;;5028550;28;20032;-52
2023/07/21 10:12:49;;;;;;;17.98;9.68;;;30.10;99.90;;;;;;5026336;28;20393;-53
2023/07/21 10:15:16;;;;;;;18.80;9.50;;;30.10;99.90;;;;;;5027615;28;20026;-53
2023/07/21 10:17:55;;;;;;;25.17;7.38;;;30.10;99.90;;;;;;5040508;28;20083;-52
2023/07/21 10:20:35;;;;;;;17.00;6.22;;;30.10;99.90;;;;;;5024949;28;20056;-50
2023/07/21 10:23:01;;;;;;;24.75;6.38;;;30.10;99.90;;;;;;5025777;28;20033;-54
2023/07/21 10:25:26;;;;;;;14.68;6.45;;;30.10;99.90;;;;;;5026942;28;20032;-51
2023/07/21 10:28:03;;;;;;;23.35;7.13;;;30.10;99.90;;;;;;5017883;28;20025;-51
2023/07/21 10:30:28;;;;;;;22.83;5.80;;;30.10;99.90;;;;;;5029102;28;20023;-52
2023/07/21 10:32:54;;;;;;;15.75;5.65;;;30.10;99.90;;;;;;5017794;28;20105;-51
2023/07/21 10:35:37;;;;;;;21.15;6.38;;;30.20;99.90;;;;;;5022598;28;20497;-52
2023/07/21 10:38:29;;;;;;;24.75;6.75;;;30.10;99.90;;;;;;5016204;28;20068;-51
2023/07/21 10:40:55;;;;;;;15.05;5.75;;;30.10;99.90;;;;;;5026053;28;20030;-52
2023/07/21 10:43:20;;;;;;;15.93;6.18;;;30.00;99.90;;;;;;5029881;28;20446;-52
2023/07/21 10:45:51;;;;;;;17.33;6.25;;;30.10;99.90;;;;;;5019353;28;20029;-52
2023/07/21 10:48:17;;;;;;;18.63;7.05;;;30.00;99.90;;;;;;5016997;28;20037;-52
2023/07/21 10:50:59;;;;;;;19.38;6.10;;;29.90;99.90;;;;;;5025020;28;20018;-52
2023/07/21 10:53:26;;;;;;;17.60;7.43;;;29.90;99.90;;;;;;5014092;28;20072;-51
2023/07/21 10:55:55;;;;;;;19.60;6.40;;;29.90;99.90;;;;;;5013589;28;20065;-49
2023/07/21 10:58:21;;;;;;;15.57;5.95;;;29.90;99.90;;;;;;5015207;28;20056;-52
2023/07/21 11:00:49;;;;;;;20.25;6.32;;;29.90;99.90;;;;;;5020070;28;20136;-53
2023/07/21 11:03:17;;;;;;;23.73;7.13;;;29.90;99.90;;;;;;5028823;28;20033;-50
2023/07/21 11:05:43;;;;;;;18.90;7.40;;;29.90;99.90;;;;;;5030099;28;20111;-52
2023/07/21 11:08:13;;;;;;;22.08;6.13;;;29.90;99.90;;;;;;5028674;28;20072;-51
2023/07/21 11:10:39;;;;;;;16.48;5.95;;;30.00;99.90;;;;;;5027967;28;20544;-52
2023/07/21 11:13:05;;;;;;;19.38;6.28;;;30.00;99.90;;;;;;5041160;28;20358;-54
2023/07/21 11:15:31;;;;;;;27.83;14.43;;;30.10;99.90;;;;;;5025821;28;20029;-52
2023/07/21 11:18:00;;;;;;;20.33;9.75;;;30.10;99.90;;;;;;5021615;28;20490;-51
2023/07/21 11:20:27;;;;;;;15.30;5.82;;;30.20;99.90;;;;;;5039922;28;20033;-52
2023/07/21 11:22:53;;;;;;;27.85;7.60;;;30.20;99.90;;;;;;5025253;28;20403;-52
2023/07/21 11:25:19;;;;;;;21.95;8.98;;;30.30;99.90;;;;;;5037460;28;20017;-51
2023/07/21 11:27:45;;;;;;;23.15;6.70;;;30.30;99.90;;;;;;5019203;28;20364;-51
2023/07/21 11:30:19;;;;;;;25.80;8.93;;;30.30;99.90;;;;;;5026272;28;20029;-51
2023/07/21 11:32:46;;;;;;;20.95;8.55;;;30.40;99.90;;;;;;5018668;28;20260;-51
2023/07/21 11:35:12;;;;;;;21.30;6.67;;;30.40;99.90;;;;;;5016819;28;20030;-52
2023/07/21 11:37:44;;;;;;;17.67;6.25;;;30.50;99.90;;;;;;5025314;28;20028;-53
2023/07/21 11:40:44;;;;;;;20.00;7.75;;;30.50;99.90;;;;;;5030064;28;20087;-53
2023/07/21 11:43:07;;;;;;;30.00;8.32;;;30.50;99.90;;;;;;5024146;28;20033;-54
2023/07/21 11:45:39;;;;;;;24.85;7.35;;;30.60;99.90;;;;;;5014064;28;20026;-52
2023/07/21 11:48:21;;;;;;;22.35;6.75;;;30.60;99.90;;;;;;5019394;28;20083;-53
2023/07/21 11:50:54;;;;;;;15.35;6.70;;;30.60;99.90;;;;;;5025236;28;20525;-53
2023/07/21 11:53:23;;;;;;;22.00;6.53;;;30.60;99.90;;;;;;5018221;28;20478;-53
2023/07/21 11:55:50;;;;;;;16.42;5.97;;;30.70;99.90;;;;;;5027302;28;20434;-53
2023/07/21 11:58:15;;;;;;;17.50;7.75;;;30.70;99.90;;;;;;5027220;28;20092;-53
2023/07/21 12:00:42;;;;;;;24.10;9.30;;;30.70;99.90;;;;;;5030826;28;20058;-53
2023/07/21 12:03:10;;;;;;;20.13;8.32;;;30.70;99.90;;;;;;5024873;28;20474;-52
2023/07/21 12:05:36;;;;;;;24.35;8.13;;;30.60;99.90;;;;;;5025900;28;20096;-55
2023/07/21 12:08:03;;;;;;;20.10;7.80;;;30.50;99.90;;;;;;5025110;28;20434;-53
2023/07/21 12:10:29;;;;;;;17.15;7.57;;;30.50;99.90;;;;;;5028741;28;20436;-53
2023/07/21 12:12:55;;;;;;;19.98;6.93;;;30.40;99.90;;;;;;5022660;28;20025;-55
2023/07/21 12:15:21;;;;;;;22.38;8.63;;;30.30;99.90;;;;;;5020427;28;20393;-53
2023/07/21 12:17:48;;;;;;;19.35;7.05;;;30.30;99.90;;;;;;5028298;28;20046;-53
2023/07/21 12:20:14;;;;;;;18.80;6.15;;;30.20;99.90;;;;;;5025009;28;20024;-54
2023/07/21 12:22:40;;;;;;;21.50;11.27;;;30.10;99.90;;;;;;5021083;28;20022;-54
2023/07/21 12:25:10;;;;;;;15.25;6.05;;;29.90;99.90;;;;;;5026173;28;20041;-54
2023/07/21 12:27:36;;;;;;;21.33;6.40;;;29.80;99.90;;;;;;5028273;28;20577;-52
2023/07/21 12:30:08;;;;;;;16.92;7.13;;;29.60;99.90;;;;;;5027832;28;20529;-50
2023/07/21 12:32:34;;;;;;;15.13;6.80;;;29.50;99.90;;;;;;5028177;28;20026;-55
2023/07/21 12:35:00;;;;;;;23.77;6.50;;;29.40;99.90;;;;;;5021218;28;20044;-53
2023/07/21 12:37:27;;;;;;;17.60;6.65;;;29.30;99.90;;;;;;5040971;28;20049;-53
2023/07/21 12:39:54;;;;;;;22.20;8.20;;;29.30;99.90;;;;;;5033372;28;20453;-54
2023/07/21 12:42:20;;;;;;;20.23;8.40;;;29.20;99.90;;;;;;5032626;28;20033;-52